Medway, Ohio
Current Conditions -  °F | °C
As of 6:58 PM on Friday 28 Nov 2014 (Local Time) from KFFO Reporting Station
Clear Clear  
Wind Chill: 24°   Ceiling: Unl
Heat Index: 32°   Visibility: 10mi
Dew Point: 18°   Wind: 10mph
Humidity: 55%   Direction: 160°SSE
Pressure: 30.14"   Gusts: NA
Location:  39.88°N, 84.02°W
Report Text: KFFO 282358Z AUTO 16009KT 10SM CLR 00/M08 A3014 RMK AO2 SLP220 T00011079 10008 21005 57023
Loading
Personal Weather Stations






























Interactive Weather Map New forecast layout! Learn more

10-Day Weather Forecast

Advertisements
Track Severe Weather on mobile